Milam Dairy, Florida
Current Conditions -  °F | °C
As of 10:53 AM on Friday 24 Oct 2014 (Local Time) from KMIA Reporting Station
Light Rain Light Rain  
Wind Chill: 77°   Ceiling: 3600
Heat Index: 79°   Visibility: 7mi
Dew Point: 71°   Wind: 16mph
Humidity: 82%   Direction: 50°NE
Pressure: 29.88"   Gusts: 22mph
Location:  25.8267°N, 80.3148°W
Report Text: KMIA 241453Z 05014G19KT 7SM -RA SCT025 BKN036 OVC080 25/22 A2988 RMK AO2 RAB05 SLP120 P0000 60000 T02500217 51012
Loading
Personal Weather Stations






























Interactive Weather Map
Tropical Storm Tracking
New forecast layout! Learn more

10-Day Weather Forecast

Advertisements
Track Severe Weather on mobile